Time;durP1;ratioP1;P1;durP2;ratioP2;P2;SDS_P1;SDS_P2;PMS_P1;PMS_P2;Temp;Humidity;BMP_temperature;BMP_pressure;BME280_temperature;BME280_humidity;BME280_pressure;Samples;Min_cycle;Max_cycle;Signal;HPM_P1;HPM_P2
2022/01/24 00:00:23;;;;;;;8.43;7.05;;;5.80;99.90;;;;;;4990383;28;20054;-81
2022/01/24 00:02:49;;;;;;;8.20;6.35;;;5.80;99.90;;;;;;4995865;28;20045;-81
2022/01/24 00:05:17;;;;;;;8.05;6.68;;;5.70;99.90;;;;;;4979686;28;20034;-81
2022/01/24 00:07:43;;;;;;;8.30;6.88;;;5.80;99.90;;;;;;4980640;28;20581;-81
2022/01/24 00:10:14;;;;;;;8.23;6.15;;;5.70;99.90;;;;;;4992590;28;20109;-81
2022/01/24 00:13:01;;;;;;;8.63;6.60;;;5.70;99.90;;;;;;4978228;28;20113;-81
2022/01/24 00:18:25;;;;;;;8.30;7.10;;;5.70;99.90;;;;;;4993707;28;20030;-81
2022/01/24 00:26:43;;;;;;;7.38;6.30;;;5.70;99.90;;;;;;4994506;28;20048;-81
2022/01/24 00:29:08;;;;;;;7.63;6.60;;;5.70;99.90;;;;;;4991181;28;20453;-80
2022/01/24 00:31:34;;;;;;;9.43;6.40;;;5.60;99.90;;;;;;4986348;28;20065;-81
2022/01/24 00:33:59;;;;;;;8.15;6.45;;;5.60;99.90;;;;;;4978728;28;20093;-80
2022/01/24 00:36:25;;;;;;;7.70;6.07;;;5.60;99.90;;;;;;4992798;28;20425;-81
2022/01/24 00:38:51;;;;;;;7.85;5.88;;;5.60;99.90;;;;;;4983020;28;20038;-80
2022/01/24 00:41:19;;;;;;;8.75;6.13;;;5.60;99.90;;;;;;4990785;28;20119;-81
2022/01/24 00:44:38;;;;;;;7.45;6.35;;;5.60;99.90;;;;;;4994432;28;20034;-80
2022/01/24 00:46:53;;;;;;;9.13;6.20;;;5.60;99.90;;;;;;4995056;28;20521;-80
2022/01/24 00:54:52;;;;;;;;;;;5.60;99.90;;;;;;4990631;28;20125;-80
2022/01/24 00:57:21;;;;;;;7.25;6.15;;;5.60;99.90;;;;;;4972117;28;20336;-80
2022/01/24 00:59:48;;;;;;;7.38;6.15;;;5.60;99.90;;;;;;4977762;28;20425;-81
2022/01/24 01:02:14;;;;;;;7.72;6.40;;;5.60;99.90;;;;;;4990018;28;20034;-81
2022/01/24 01:07:22;;;;;;;8.30;6.30;;;5.50;99.90;;;;;;4996131;28;20490;-81
2022/01/24 01:21:10;;;;;;;8.27;5.82;;;5.50;99.90;;;;;;5008527;28;20043;-81
2022/01/24 01:23:30;;;;;;;7.15;5.78;;;5.50;99.90;;;;;;4992485;28;20049;-80
2022/01/24 01:25:58;;;;;;;7.75;5.68;;;5.50;99.90;;;;;;4972463;28;20095;-81
2022/01/24 01:28:26;;;;;;;7.55;5.63;;;5.50;99.90;;;;;;4988553;28;20050;-81
2022/01/24 01:30:55;;;;;;;7.00;5.43;;;5.40;99.90;;;;;;4992603;28;20126;-81
2022/01/24 01:33:34;;;;;;;6.72;5.80;;;5.40;99.90;;;;;;4979907;28;20061;-81
2022/01/24 01:36:11;;;;;;;7.22;5.72;;;5.40;99.90;;;;;;4990665;28;20154;-81
2022/01/24 01:52:53;;;;;;;6.68;5.32;;;5.40;99.90;;;;;;4989507;28;20060;-81
2022/01/24 01:55:51;;;;;;;7.53;5.90;;;5.30;99.90;;;;;;4978217;28;20458;-81
2022/01/24 01:58:16;;;;;;;7.90;6.35;;;5.40;99.90;;;;;;4990231;28;20046;-81
2022/01/24 02:00:45;;;;;;;7.43;6.35;;;5.40;99.90;;;;;;4996827;28;20059;-81
2022/01/24 02:03:11;;;;;;;7.90;6.15;;;5.30;99.90;;;;;;4988173;28;20060;-81
2022/01/24 02:05:37;;;;;;;9.60;6.85;;;5.30;99.90;;;;;;4984984;28;20231;-81
2022/01/24 02:08:03;;;;;;;8.05;6.07;;;5.40;99.90;;;;;;4995583;28;20438;-81
2022/01/24 02:10:32;;;;;;;7.53;5.93;;;5.30;99.90;;;;;;4978260;28;20160;-81
2022/01/24 02:12:58;;;;;;;7.97;6.35;;;5.30;99.90;;;;;;4999640;28;20195;-81
2022/01/24 02:15:34;;;;;;;7.38;6.07;;;5.40;99.90;;;;;;4980013;28;20132;-81
2022/01/24 02:18:21;;;;;;;7.10;5.78;;;5.30;99.90;;;;;;4987521;28;20049;-81
2022/01/24 02:26:04;;;;;;;8.52;6.53;;;5.30;99.90;;;;;;4987002;28;20560;-81
2022/01/24 02:28:41;;;;;;;9.82;7.15;;;5.30;99.90;;;;;;4986705;28;20136;-81
2022/01/24 02:31:25;;;;;;;9.90;6.97;;;5.30;99.90;;;;;;4988557;28;20188;-81
2022/01/24 02:33:55;;;;;;;8.80;6.85;;;5.30;99.90;;;;;;5007623;28;20061;-81
2022/01/24 02:36:23;;;;;;;8.40;6.93;;;5.30;99.90;;;;;;4990876;28;20140;-81
2022/01/24 02:49:34;;;;;;;10.55;7.03;;;5.30;99.90;;;;;;4995329;28;20159;-80
2022/01/24 02:52:09;;;;;;;8.50;6.65;;;5.30;99.90;;;;;;4974209;28;20127;-81
2022/01/24 02:54:37;;;;;;;11.25;7.20;;;5.30;99.90;;;;;;4997076;28;20081;-81
2022/01/24 02:57:04;;;;;;;10.23;7.45;;;5.30;99.90;;;;;;4988502;28;20045;-80
2022/01/24 02:59:30;;;;;;;10.73;7.43;;;5.30;99.90;;;;;;4978029;28;20477;-81
2022/01/24 03:01:56;;;;;;;9.77;7.78;;;5.30;99.90;;;;;;4979968;28;20247;-81
2022/01/24 03:04:22;;;;;;;11.45;7.30;;;5.30;99.90;;;;;;4988904;28;20026;-81
2022/01/24 03:06:48;;;;;;;11.45;8.40;;;5.20;99.90;;;;;;4991713;28;20045;-80
2022/01/24 03:09:15;;;;;;;11.52;8.15;;;5.20;99.90;;;;;;4993502;28;20180;-81
2022/01/24 03:14:29;;;;;;;9.60;7.65;;;5.30;99.90;;;;;;4994450;28;20045;-80
2022/01/24 03:16:55;;;;;;;10.00;7.47;;;5.20;99.90;;;;;;4981311;28;20064;-80
2022/01/24 03:19:21;;;;;;;9.90;8.25;;;5.30;99.90;;;;;;4990347;28;20072;-81
2022/01/24 03:21:47;;;;;;;10.48;7.95;;;5.20;99.90;;;;;;4979726;28;20123;-81
2022/01/24 03:24:14;;;;;;;9.35;7.97;;;5.20;99.90;;;;;;4992379;28;20092;-81
2022/01/24 03:26:41;;;;;;;10.85;7.88;;;5.30;99.90;;;;;;4994256;28;20037;-80
2022/01/24 03:29:07;;;;;;;11.52;7.78;;;5.20;99.90;;;;;;4989450;28;20034;-80
2022/01/24 03:31:38;;;;;;;11.02;8.45;;;5.20;99.90;;;;;;4995253;28;20113;-80
2022/01/24 03:34:04;;;;;;;10.85;8.38;;;5.30;99.90;;;;;;4990157;28;20050;-80
2022/01/24 03:36:30;;;;;;;10.38;8.18;;;5.30;99.90;;;;;;4980663;28;20057;-80
2022/01/24 03:38:56;;;;;;;10.73;7.78;;;5.20;99.90;;;;;;4985869;28;20109;-81
2022/01/24 03:41:22;;;;;;;11.65;8.73;;;5.20;99.90;;;;;;4977604;28;20057;-81
2022/01/24 03:43:47;;;;;;;11.60;8.90;;;5.20;99.90;;;;;;4972978;28;20083;-80
2022/01/24 03:48:51;;;;;;;12.18;9.55;;;5.20;99.90;;;;;;4992600;28;20117;-81
2022/01/24 03:51:17;;;;;;;13.93;10.10;;;5.20;99.90;;;;;;4990212;28;20119;-81
2022/01/24 03:53:45;;;;;;;12.50;9.70;;;5.20;99.90;;;;;;5000005;28;20037;-81
2022/01/24 03:56:11;;;;;;;12.02;9.02;;;5.20;99.90;;;;;;4988256;28;20054;-80
2022/01/24 03:58:37;;;;;;;13.45;9.15;;;5.20;99.90;;;;;;4986720;28;20046;-80
2022/01/24 04:01:06;;;;;;;12.27;8.93;;;5.20;99.90;;;;;;4981982;28;20489;-80
2022/01/24 04:03:32;;;;;;;14.80;9.82;;;5.20;99.90;;;;;;4992300;28;20469;-80
2022/01/24 04:05:58;;;;;;;13.70;9.93;;;5.20;99.90;;;;;;4992078;28;20034;-81
2022/01/24 04:08:24;;;;;;;16.98;10.63;;;5.20;99.90;;;;;;4986107;28;20045;-81
2022/01/24 04:10:53;;;;;;;13.52;10.25;;;5.20;99.90;;;;;;4989319;28;20086;-81
2022/01/24 04:13:33;;;;;;;14.98;10.20;;;5.20;99.90;;;;;;4992600;28;20260;-80
2022/01/24 04:21:34;;;;;;;13.73;10.95;;;5.20;99.90;;;;;;4985982;28;20064;-81
2022/01/24 04:26:28;;;;;;;15.73;11.02;;;5.20;99.90;;;;;;4999010;28;20196;-80
2022/01/24 04:28:54;;;;;;;17.40;12.60;;;5.20;99.90;;;;;;4979134;28;20136;-80
2022/01/24 04:31:20;;;;;;;16.58;11.57;;;5.20;99.90;;;;;;4994719;28;20059;-81
2022/01/24 04:33:46;;;;;;;16.08;11.73;;;5.10;99.90;;;;;;4985586;28;20050;-80
2022/01/24 04:36:13;;;;;;;16.55;11.73;;;5.10;99.90;;;;;;4976573;28;20046;-80
2022/01/24 04:38:38;;;;;;;16.80;12.57;;;5.10;99.90;;;;;;4978571;28;20038;-80
2022/01/24 04:41:13;;;;;;;17.77;12.35;;;5.10;99.90;;;;;;4986547;28;20034;-80
2022/01/24 04:46:18;;;;;;;17.20;12.10;;;5.10;99.90;;;;;;4997347;28;20539;-81
2022/01/24 04:51:39;;;;;;;18.40;12.23;;;5.10;99.90;;;;;;4988787;28;20038;-81
2022/01/24 04:56:38;;;;;;;16.65;12.45;;;5.10;99.90;;;;;;5002411;28;20065;-80
2022/01/24 04:59:05;;;;;;;18.27;12.07;;;5.20;99.90;;;;;;4989184;28;20045;-80
2022/01/24 05:01:31;;;;;;;19.60;13.02;;;5.10;99.90;;;;;;4980571;28;20122;-80
2022/01/24 05:03:57;;;;;;;17.73;12.77;;;5.20;99.90;;;;;;4992715;28;20516;-81
2022/01/24 05:06:23;;;;;;;17.15;12.93;;;5.10;99.90;;;;;;4993908;28;20049;-80
2022/01/24 05:08:51;;;;;;;18.83;13.43;;;5.10;99.90;;;;;;4971947;28;20038;-80
2022/01/24 05:11:32;;;;;;;19.08;13.15;;;5.10;99.90;;;;;;4977871;28;20281;-80
2022/01/24 05:24:38;;;;;;;18.67;13.50;;;5.20;99.90;;;;;;4995824;28;20084;-80
2022/01/24 05:27:05;;;;;;;20.58;13.88;;;5.10;99.90;;;;;;5008401;28;20053;-81
2022/01/24 05:29:31;;;;;;;21.45;13.38;;;5.20;99.90;;;;;;4996450;28;20532;-81
2022/01/24 05:31:57;;;;;;;20.10;13.52;;;5.10;99.90;;;;;;4982004;28;20453;-80
2022/01/24 05:34:23;;;;;;;18.52;13.57;;;5.10;99.90;;;;;;4981017;28;20119;-80
2022/01/24 05:36:49;;;;;;;19.98;14.27;;;5.10;99.90;;;;;;4999719;28;20056;-80
2022/01/24 05:39:15;;;;;;;19.65;13.80;;;5.10;99.90;;;;;;4997731;28;20037;-80
2022/01/24 05:41:41;;;;;;;19.80;13.40;;;5.10;99.90;;;;;;4975870;28;20111;-81
2022/01/24 05:44:07;;;;;;;20.52;14.15;;;5.10;99.90;;;;;;4979869;28;20453;-80
2022/01/24 05:46:33;;;;;;;20.58;15.20;;;5.10;99.90;;;;;;4999050;28;20041;-80
2022/01/24 05:49:00;;;;;;;21.10;14.70;;;5.10;99.90;;;;;;4978301;28;20589;-80
2022/01/24 05:51:26;;;;;;;19.38;14.32;;;5.10;99.90;;;;;;4999161;28;20037;-80
2022/01/24 05:53:52;;;;;;;19.02;13.20;;;5.10;99.90;;;;;;4996120;28;20068;-81
2022/01/24 05:56:21;;;;;;;21.88;14.10;;;5.10;99.90;;;;;;4982985;28;20400;-80
2022/01/24 05:58:47;;;;;;;20.30;14.30;;;5.10;99.90;;;;;;4980600;28;20044;-80
2022/01/24 06:01:12;;;;;;;19.08;13.50;;;5.10;99.90;;;;;;5000165;28;20037;-80
2022/01/24 06:03:38;;;;;;;18.95;13.07;;;5.10;99.90;;;;;;4995534;28;20034;-81
2022/01/24 06:06:04;;;;;;;21.45;13.18;;;5.10;99.90;;;;;;4996044;28;20037;-80
2022/01/24 06:08:30;;;;;;;18.15;12.63;;;5.10;99.90;;;;;;4975979;28;20076;-80
2022/01/24 06:10:59;;;;;;;18.58;13.13;;;5.10;99.90;;;;;;4992273;28;20063;-80
2022/01/24 06:13:26;;;;;;;16.23;11.98;;;5.10;99.90;;;;;;4995275;28;20037;-80
2022/01/24 06:15:51;;;;;;;15.23;11.27;;;5.10;99.90;;;;;;4999987;28;20622;-80
2022/01/24 06:18:17;;;;;;;14.93;11.32;;;5.00;99.90;;;;;;4996466;28;20069;-81
2022/01/24 06:20:44;;;;;;;15.10;10.75;;;5.10;99.90;;;;;;4993792;28;20033;-81
2022/01/24 06:23:14;;;;;;;14.73;10.55;;;5.10;99.90;;;;;;4979696;28;20049;-81
2022/01/24 06:25:40;;;;;;;15.52;10.73;;;5.10;99.90;;;;;;4995119;28;20104;-81
2022/01/24 06:28:05;;;;;;;14.75;10.82;;;5.10;99.90;;;;;;4999249;28;20037;-80
2022/01/24 06:30:31;;;;;;;15.77;10.98;;;5.10;99.90;;;;;;4985533;28;20053;-80
2022/01/24 06:32:56;;;;;;;15.77;10.35;;;5.10;99.90;;;;;;4979999;28;20455;-81
2022/01/24 06:35:22;;;;;;;16.48;10.60;;;5.10;99.90;;;;;;5001267;28;20602;-80
2022/01/24 06:37:48;;;;;;;15.88;10.57;;;5.10;99.90;;;;;;5003791;28;20041;-80
2022/01/24 06:40:14;;;;;;;14.00;11.10;;;5.10;99.90;;;;;;4999266;28;20468;-80
2022/01/24 06:42:40;;;;;;;14.80;10.73;;;5.10;99.90;;;;;;4998514;28;20038;-80
2022/01/24 06:45:06;;;;;;;14.45;10.38;;;5.10;99.90;;;;;;4983009;28;20495;-80
2022/01/24 06:47:32;;;;;;;16.00;11.10;;;5.10;99.90;;;;;;5001952;28;20041;-80
2022/01/24 06:49:58;;;;;;;14.38;10.70;;;5.10;99.90;;;;;;4999230;28;20040;-80
2022/01/24 06:52:23;;;;;;;13.75;10.48;;;5.10;99.90;;;;;;5000741;28;20152;-81
2022/01/24 06:54:49;;;;;;;15.70;10.90;;;5.10;99.90;;;;;;4979772;28;20049;-81
2022/01/24 06:57:16;;;;;;;13.88;10.48;;;5.10;99.90;;;;;;4998718;28;20049;-80
2022/01/24 06:59:43;;;;;;;15.63;10.60;;;5.10;99.90;;;;;;4981252;28;20114;-80
2022/01/24 07:02:10;;;;;;;15.88;10.80;;;5.10;99.90;;;;;;5002050;28;20042;-80
2022/01/24 07:04:39;;;;;;;14.85;10.93;;;5.10;99.90;;;;;;4979561;28;20050;-80
2022/01/24 07:07:05;;;;;;;16.20;10.70;;;5.10;99.90;;;;;;4977256;28;20852;-81
2022/01/24 07:09:31;;;;;;;15.27;10.02;;;5.10;99.90;;;;;;5001488;28;20130;-81
2022/01/24 07:11:57;;;;;;;14.00;10.30;;;5.10;99.90;;;;;;4976487;28;20033;-80
2022/01/24 07:14:23;;;;;;;16.27;11.68;;;5.00;99.90;;;;;;4978297;28;20397;-81
2022/01/24 07:19:26;;;;;;;14.00;10.20;;;5.10;99.90;;;;;;5001945;28;20033;-81
2022/01/24 07:21:55;;;;;;;15.27;10.65;;;5.00;99.90;;;;;;5000850;28;20041;-81
2022/01/24 07:24:21;;;;;;;19.25;11.45;;;5.00;99.90;;;;;;5004092;28;20300;-80
2022/01/24 07:26:47;;;;;;;15.88;10.75;;;5.10;99.90;;;;;;4983305;28;20084;-80
2022/01/24 07:29:12;;;;;;;18.63;13.90;;;5.00;99.90;;;;;;4977367;28;20038;-80
2022/01/24 07:31:38;;;;;;;20.35;12.90;;;5.00;99.90;;;;;;4977467;28;20034;-80
2022/01/24 07:34:04;;;;;;;17.75;12.52;;;5.10;99.90;;;;;;4975861;28;20069;-80
2022/01/24 07:36:29;;;;;;;17.15;13.05;;;5.10;99.90;;;;;;4979953;28;20172;-80
2022/01/24 07:38:55;;;;;;;19.83;13.05;;;5.00;99.90;;;;;;4986554;28;20049;-81
2022/01/24 07:41:27;;;;;;;22.15;14.80;;;5.00;99.90;;;;;;4976588;28;20569;-80
2022/01/24 07:43:53;;;;;;;24.10;15.98;;;5.10;99.90;;;;;;4978444;28;20152;-80
2022/01/24 07:46:19;;;;;;;27.45;17.55;;;5.10;99.90;;;;;;4980905;28;20124;-80
2022/01/24 07:48:45;;;;;;;32.22;17.77;;;5.10;99.90;;;;;;4997221;28;20042;-81
2022/01/24 07:51:11;;;;;;;22.10;15.45;;;5.10;99.90;;;;;;4996320;28;20046;-80
2022/01/24 07:53:40;;;;;;;24.23;15.68;;;5.10;99.90;;;;;;5001197;28;20417;-80
2022/01/24 07:56:05;;;;;;;24.27;16.67;;;5.20;99.90;;;;;;5000839;28;20576;-80
2022/01/24 07:58:31;;;;;;;22.83;15.32;;;5.20;99.90;;;;;;5001959;28;20041;-80
2022/01/24 08:00:57;;;;;;;24.88;16.40;;;5.10;99.90;;;;;;4999385;28;20346;-80
2022/01/24 08:03:23;;;;;;;25.30;16.70;;;5.20;99.90;;;;;;4997249;28;20084;-81
2022/01/24 08:05:49;;;;;;;27.77;17.35;;;5.20;99.90;;;;;;4998128;28;20061;-81
2022/01/24 08:08:14;;;;;;;26.30;17.08;;;5.10;99.90;;;;;;4980282;28;20132;-80
2022/01/24 08:10:40;;;;;;;24.40;16.27;;;5.20;99.90;;;;;;4994477;28;20516;-81
2022/01/24 08:13:06;;;;;;;27.10;17.83;;;5.20;99.90;;;;;;4991277;28;20029;-80
2022/01/24 08:15:32;;;;;;;26.90;17.00;;;5.20;99.90;;;;;;5001636;28;20059;-80
2022/01/24 08:17:58;;;;;;;23.08;16.00;;;5.20;99.90;;;;;;4979005;28;20087;-80
2022/01/24 08:20:24;;;;;;;27.90;17.85;;;5.20;99.90;;;;;;4983308;28;20139;-81
2022/01/24 08:22:50;;;;;;;28.65;17.73;;;5.20;99.90;;;;;;4998877;28;20187;-80
2022/01/24 08:25:17;;;;;;;23.67;16.50;;;5.20;99.90;;;;;;4976830;28;20113;-80
2022/01/24 08:27:43;;;;;;;24.90;16.40;;;5.20;99.90;;;;;;4997528;28;20042;-80
2022/01/24 08:30:12;;;;;;;27.38;17.05;;;5.30;99.90;;;;;;4999174;28;20063;-80
2022/01/24 08:32:39;;;;;;;25.33;16.23;;;5.30;99.90;;;;;;4998375;28;20064;-80
2022/01/24 08:35:05;;;;;;;26.27;15.93;;;5.30;99.90;;;;;;4979487;28;20132;-81
2022/01/24 08:37:32;;;;;;;23.35;15.93;;;5.30;99.90;;;;;;4972285;28;20127;-81
2022/01/24 08:39:59;;;;;;;24.25;16.55;;;5.30;99.90;;;;;;4980516;28;20046;-80
2022/01/24 08:42:41;;;;;;;27.38;15.98;;;5.30;99.90;;;;;;4999086;28;20456;-81
2022/01/24 08:47:52;;;;;;;;;;;5.30;99.90;;;;;;4997748;28;20034;-80
2022/01/24 08:50:24;;;;;;;22.70;14.90;;;5.40;99.90;;;;;;4977856;28;19927;-81
2022/01/24 08:52:50;;;;;;;24.00;16.20;;;5.40;99.90;;;;;;4977601;28;20065;-80
2022/01/24 08:55:16;;;;;;;22.30;14.73;;;5.40;99.90;;;;;;4996528;28;20147;-81
2022/01/24 08:57:41;;;;;;;23.13;15.52;;;5.40;99.90;;;;;;4999677;28;20708;-81
2022/01/24 09:00:08;;;;;;;22.48;15.48;;;5.40;99.90;;;;;;4997968;28;20517;-80
2022/01/24 09:02:35;;;;;;;23.98;15.77;;;5.40;99.90;;;;;;4997206;28;20057;-80
2022/01/24 09:05:01;;;;;;;23.45;15.82;;;5.40;99.90;;;;;;4991725;28;20445;-80
2022/01/24 09:07:29;;;;;;;24.42;15.88;;;5.50;99.90;;;;;;4996105;28;20463;-80
2022/01/24 09:09:56;;;;;;;24.13;15.55;;;5.40;99.90;;;;;;4974671;28;20434;-80
2022/01/24 09:12:22;;;;;;;22.95;15.15;;;5.50;99.90;;;;;;5000733;28;20114;-81
2022/01/24 09:14:48;;;;;;;24.55;15.07;;;5.50;99.90;;;;;;4981909;28;20053;-80
2022/01/24 09:17:15;;;;;;;23.67;15.40;;;5.50;99.90;;;;;;4997982;28;20045;-80
2022/01/24 09:19:42;;;;;;;23.08;15.18;;;5.50;99.90;;;;;;4993229;28;20050;-81
2022/01/24 09:22:08;;;;;;;23.80;15.77;;;5.60;99.90;;;;;;4980585;28;20125;-80
2022/01/24 09:24:35;;;;;;;24.10;15.65;;;5.50;99.90;;;;;;4995146;28;20126;-81
2022/01/24 09:27:01;;;;;;;23.92;15.90;;;5.60;99.90;;;;;;4975725;28;20034;-80
2022/01/24 09:29:27;;;;;;;23.40;16.05;;;5.60;99.90;;;;;;4975541;28;20038;-81
2022/01/24 09:31:53;;;;;;;29.63;16.42;;;5.60;99.90;;;;;;4997453;28;20042;-81
2022/01/24 09:34:22;;;;;;;24.63;15.73;;;5.60;99.90;;;;;;5003988;28;20658;-81
2022/01/24 09:36:49;;;;;;;22.90;15.15;;;5.60;99.90;;;;;;4980396;28;20089;-81
2022/01/24 09:39:16;;;;;;;22.88;15.18;;;5.60;99.90;;;;;;5003563;28;20049;-81
2022/01/24 09:41:42;;;;;;;23.15;15.18;;;5.60;99.90;;;;;;4972467;28;20045;-80
2022/01/24 09:44:08;;;;;;;27.88;16.63;;;5.70;99.90;;;;;;4995614;28;20370;-81
2022/01/24 09:46:36;;;;;;;28.35;17.83;;;5.70;99.90;;;;;;4995393;28;20073;-80
2022/01/24 09:49:03;;;;;;;25.35;17.45;;;5.70;99.90;;;;;;4992233;28;20042;-81
2022/01/24 09:51:29;;;;;;;30.35;18.02;;;5.70;99.90;;;;;;4971166;28;20046;-80
2022/01/24 09:53:55;;;;;;;33.08;19.40;;;5.70;99.90;;;;;;4976470;28;20140;-81
2022/01/24 09:56:21;;;;;;;37.63;22.33;;;5.70;99.90;;;;;;4975633;28;20052;-81
2022/01/24 09:58:47;;;;;;;38.25;23.17;;;5.70;99.90;;;;;;4977180;28;20038;-80
2022/01/24 10:01:14;;;;;;;42.30;23.38;;;5.70;99.90;;;;;;4974015;28;20036;-80
2022/01/24 10:04:00;;;;;;;41.15;24.27;;;5.70;99.90;;;;;;4974938;28;20452;-81
2022/01/24 10:06:25;;;;;;;41.38;23.70;;;5.70;99.90;;;;;;4975750;28;20042;-80
2022/01/24 10:08:51;;;;;;;41.47;24.45;;;5.70;99.90;;;;;;4999330;28;20401;-81
2022/01/24 10:11:17;;;;;;;43.35;24.42;;;5.70;99.90;;;;;;5000243;28;20057;-81
2022/01/24 10:16:45;;;;;;;42.58;24.58;;;5.70;99.90;;;;;;5013420;28;20068;-81
2022/01/24 10:19:16;;;;;;;44.85;24.42;;;5.70;99.90;;;;;;5001252;28;20037;-81
2022/01/24 10:21:45;;;;;;;42.45;26.52;;;5.70;99.90;;;;;;5015159;28;20027;-81
2022/01/24 10:24:28;;;;;;;45.63;27.52;;;5.80;99.90;;;;;;4998429;28;20133;-80
2022/01/24 10:27:17;;;;;;;45.05;26.08;;;5.80;99.90;;;;;;4982856;28;20149;-80
2022/01/24 10:30:03;;;;;;;46.72;27.52;;;5.80;99.90;;;;;;4974436;28;20041;-81
2022/01/24 10:32:36;;;;;;;47.97;28.58;;;5.80;99.90;;;;;;4983074;28;20030;-81
2022/01/24 10:35:44;;;;;;;50.50;29.92;;;5.80;99.90;;;;;;4979423;28;20621;-81
2022/01/24 10:38:33;;;;;;;49.83;29.10;;;5.80;99.90;;;;;;5000582;28;20081;-81
2022/01/24 10:41:50;;;;;;;52.63;28.88;;;5.80;99.90;;;;;;4982938;28;20042;-80
2022/01/24 10:43:57;;;;;;;50.80;29.35;;;5.80;99.90;;;;;;5000459;28;20042;-81
2022/01/24 10:46:25;;;;;;;51.97;29.90;;;5.80;99.90;;;;;;4978573;28;20519;-80
2022/01/24 10:49:04;;;;;;;52.05;30.95;;;5.90;99.90;;;;;;4980693;28;20045;-81
2022/01/24 10:51:40;;;;;;;51.17;29.20;;;5.90;99.90;;;;;;4979393;28;20049;-81
2022/01/24 10:54:06;;;;;;;58.00;29.85;;;5.90;99.90;;;;;;4995476;28;20038;-81
2022/01/24 10:56:43;;;;;;;50.85;30.27;;;5.90;99.90;;;;;;5000197;28;20034;-80
2022/01/24 10:59:12;;;;;;;53.80;30.73;;;5.90;99.90;;;;;;4996733;28;20034;-81
2022/01/24 11:01:39;;;;;;;50.53;30.48;;;5.80;99.90;;;;;;5002202;28;20441;-81
2022/01/24 11:04:13;;;;;;;49.63;29.40;;;5.90;99.90;;;;;;4996797;28;20115;-81
2022/01/24 11:06:47;;;;;;;53.65;31.80;;;5.90;99.90;;;;;;4995082;28;20160;-80
2022/01/24 11:09:28;;;;;;;55.08;31.00;;;5.90;99.90;;;;;;4982957;28;20041;-80
2022/01/24 11:12:11;;;;;;;52.35;31.88;;;6.00;99.90;;;;;;5000639;28;20469;-81
2022/01/24 11:14:39;;;;;;;58.80;32.25;;;5.90;99.90;;;;;;4976265;28;20317;-80
2022/01/24 11:17:09;;;;;;;56.83;32.53;;;6.00;99.90;;;;;;4997569;28;20053;-80
2022/01/24 11:19:45;;;;;;;56.08;32.70;;;5.90;99.90;;;;;;4998890;28;20175;-81
2022/01/24 11:22:20;;;;;;;57.22;32.65;;;5.90;99.90;;;;;;4996822;28;20034;-81
2022/01/24 11:25:04;;;;;;;52.88;31.40;;;5.90;99.90;;;;;;4982954;28;20140;-81
2022/01/24 11:27:30;;;;;;;57.88;32.58;;;5.90;99.90;;;;;;4983158;28;20256;-81
2022/01/24 11:30:00;;;;;;;53.20;31.50;;;6.00;99.90;;;;;;4999119;28;20060;-81
2022/01/24 11:32:28;;;;;;;49.65;30.17;;;6.00;99.90;;;;;;5001130;28;20046;-81
2022/01/24 11:34:55;;;;;;;44.20;25.85;;;5.90;99.90;;;;;;4978817;28;20042;-81
2022/01/24 11:37:42;;;;;;;43.40;26.25;;;5.90;99.90;;;;;;5002980;28;20076;-81
2022/01/24 11:40:13;;;;;;;46.15;27.95;;;6.00;99.90;;;;;;4978557;28;20041;-81
2022/01/24 11:42:41;;;;;;;49.67;30.02;;;6.00;99.90;;;;;;4997573;28;20033;-80
2022/01/24 11:45:17;;;;;;;50.58;29.70;;;6.00;99.90;;;;;;4995203;28;20100;-81
2022/01/24 11:47:47;;;;;;;47.60;30.55;;;6.10;99.90;;;;;;4998830;28;20200;-80
2022/01/24 11:50:36;;;;;;;52.95;31.10;;;6.00;99.90;;;;;;4995351;28;20404;-81
2022/01/24 11:53:22;;;;;;;51.78;29.02;;;6.00;99.90;;;;;;4997550;28;20427;-80
2022/01/24 11:55:48;;;;;;;51.33;30.52;;;6.00;99.90;;;;;;4999625;28;20141;-81
2022/01/24 11:58:30;;;;;;;51.70;31.85;;;6.00;99.90;;;;;;4996576;28;20189;-81
2022/01/24 12:01:02;;;;;;;54.95;31.98;;;5.90;99.90;;;;;;4983067;28;20490;-80
2022/01/24 12:03:29;;;;;;;40.15;25.40;;;5.90;99.90;;;;;;4981103;28;20384;-80
2022/01/24 12:06:09;;;;;;;36.92;23.15;;;5.90;99.90;;;;;;4976797;28;20389;-81
2022/01/24 12:08:43;;;;;;;36.65;23.45;;;5.90;99.90;;;;;;5005244;28;20183;-81
2022/01/24 12:11:23;;;;;;;36.80;23.45;;;5.90;99.90;;;;;;4995221;28;20046;-81
2022/01/24 12:13:54;;;;;;;44.83;26.73;;;5.90;99.90;;;;;;4999239;28;20531;-81
2022/01/24 12:16:22;;;;;;;41.28;25.45;;;5.90;99.90;;;;;;4999564;28;20041;-81
2022/01/24 12:18:50;;;;;;;37.20;23.85;;;5.80;99.90;;;;;;4982199;28;20034;-81
2022/01/24 12:21:21;;;;;;;38.03;24.45;;;5.80;99.90;;;;;;4999959;28;20042;-81
2022/01/24 12:24:02;;;;;;;35.97;23.98;;;5.80;99.90;;;;;;4998450;28;20500;-81
2022/01/24 12:26:31;;;;;;;37.72;23.40;;;5.80;99.90;;;;;;4995011;28;20048;-81
2022/01/24 12:29:06;;;;;;;40.03;24.95;;;5.80;99.90;;;;;;4977034;28;20034;-81
2022/01/24 12:31:34;;;;;;;38.17;23.60;;;5.80;99.90;;;;;;5014171;28;20524;-81
2022/01/24 12:34:11;;;;;;;36.60;24.13;;;5.80;99.90;;;;;;4983389;28;20124;-81
2022/01/24 12:36:46;;;;;;;37.28;24.50;;;5.80;99.90;;;;;;4999255;28;20062;-81
2022/01/24 12:39:14;;;;;;;35.53;23.33;;;5.80;99.90;;;;;;4992693;28;20042;-81
2022/01/24 12:41:46;;;;;;;34.83;22.98;;;5.90;99.90;;;;;;4998387;28;20030;-81
2022/01/24 12:46:59;;;;;;;38.05;22.65;;;5.90;99.90;;;;;;4995506;28;20042;-81
2022/01/24 12:49:28;;;;;;;35.00;21.60;;;5.90;99.90;;;;;;4978032;28;20045;-81
2022/01/24 12:51:54;;;;;;;36.88;22.70;;;5.80;99.90;;;;;;4982712;28;20042;-80
2022/01/24 12:54:31;;;;;;;37.33;22.58;;;5.80;99.90;;;;;;4997734;28;20051;-81
2022/01/24 12:57:02;;;;;;;33.20;22.13;;;5.70;99.90;;;;;;4996801;28;20049;-80
2022/01/24 12:59:28;;;;;;;38.65;23.77;;;5.70;99.90;;;;;;4993477;28;20046;-80
2022/01/24 13:01:55;;;;;;;38.35;23.58;;;5.70;99.90;;;;;;4981936;28;20340;-81
2022/01/24 13:04:33;;;;;;;36.88;23.95;;;5.70;99.90;;;;;;4996802;28;20545;-80
2022/01/24 13:06:59;;;;;;;37.67;24.38;;;5.80;99.90;;;;;;5000804;28;20412;-81
2022/01/24 13:09:25;;;;;;;38.83;23.88;;;5.70;99.90;;;;;;4995503;28;20045;-81
2022/01/24 13:12:04;;;;;;;38.33;24.67;;;5.80;99.90;;;;;;4995122;28;20133;-81
2022/01/24 13:23:03;;;;;;;40.42;25.38;;;5.80;99.90;;;;;;4997682;28;20389;-81
2022/01/24 13:25:31;;;;;;;45.33;28.10;;;5.80;99.90;;;;;;4995414;28;20042;-81
2022/01/24 13:28:13;;;;;;;43.83;27.92;;;5.80;99.90;;;;;;4978444;28;20481;-80
2022/01/24 13:30:46;;;;;;;46.15;29.20;;;5.80;99.90;;;;;;4996681;28;20053;-80
2022/01/24 13:33:16;;;;;;;44.33;28.50;;;5.80;99.90;;;;;;4984053;28;20412;-80
2022/01/24 13:35:45;;;;;;;44.15;27.15;;;5.80;99.90;;;;;;4991546;28;20069;-81
2022/01/24 13:38:18;;;;;;;47.75;28.45;;;5.70;99.90;;;;;;4977385;28;20417;-81
2022/01/24 13:41:06;;;;;;;45.75;27.58;;;5.70;99.90;;;;;;4992538;28;20405;-80
2022/01/24 13:43:58;;;;;;;49.00;28.48;;;5.60;99.90;;;;;;4976025;28;20038;-80
2022/01/24 13:46:31;;;;;;;44.00;26.98;;;5.60;99.90;;;;;;5004647;28;20367;-80
2022/01/24 13:49:01;;;;;;;48.08;28.42;;;5.60;99.90;;;;;;4977502;28;20367;-80
2022/01/24 13:51:48;;;;;;;45.28;28.70;;;5.60;99.90;;;;;;4977314;28;20054;-81
2022/01/24 13:54:24;;;;;;;49.20;29.10;;;5.60;99.90;;;;;;4980234;28;20298;-81
2022/01/24 13:57:02;;;;;;;49.95;31.58;;;5.60;99.90;;;;;;4992791;28;20116;-80
2022/01/24 13:59:30;;;;;;;50.28;30.02;;;5.60;99.90;;;;;;4993146;28;20620;-80
2022/01/24 14:02:00;;;;;;;48.13;29.65;;;5.50;99.90;;;;;;4979461;28;20052;-80
2022/01/24 14:04:32;;;;;;;53.90;33.25;;;5.50;99.90;;;;;;5000049;28;20385;-81
2022/01/24 14:07:04;;;;;;;53.80;32.97;;;5.60;99.90;;;;;;5013493;28;20049;-80
2022/01/24 14:09:33;;;;;;;51.72;31.60;;;5.50;99.90;;;;;;4999952;28;20033;-81
2022/01/24 14:11:58;;;;;;;49.00;29.38;;;5.50;99.90;;;;;;4977812;28;20105;-80
2022/01/24 14:14:41;;;;;;;51.42;30.50;;;5.50;99.90;;;;;;4999910;28;20037;-81
2022/01/24 14:19:39;;;;;;;50.38;31.30;;;5.50;99.90;;;;;;4995172;28;20038;-80
2022/01/24 14:22:12;;;;;;;45.88;30.35;;;5.50;99.90;;;;;;4977960;28;20026;-81
2022/01/24 14:24:54;;;;;;;47.93;29.87;;;5.50;99.90;;;;;;4979089;28;20042;-81
2022/01/24 14:27:46;;;;;;;50.38;31.23;;;5.50;99.90;;;;;;4995892;28;20030;-81
2022/01/24 14:30:38;;;;;;;49.30;30.42;;;5.50;99.90;;;;;;4992844;28;20050;-81
2022/01/24 14:33:13;;;;;;;48.20;30.02;;;5.50;99.90;;;;;;4996297;28;20153;-81
2022/01/24 14:36:04;;;;;;;49.72;30.50;;;5.40;99.90;;;;;;4995271;28;20038;-81
2022/01/24 14:38:53;;;;;;;50.15;31.40;;;5.40;99.90;;;;;;5012585;28;20052;-81
2022/01/24 14:41:21;;;;;;;50.10;31.10;;;5.40;99.90;;;;;;4982319;28;20038;-81
2022/01/24 14:46:40;;;;;;;52.92;31.05;;;5.40;99.90;;;;;;4998990;28;20041;-81
2022/01/24 14:49:24;;;;;;;49.55;30.30;;;5.40;99.90;;;;;;4994978;28;20053;-81